Time;durP1;ratioP1;P1;durP2;ratioP2;P2;SDS_P1;SDS_P2;PMS_P1;PMS_P2;Temp;Humidity;BMP_temperature;BMP_pressure;BME280_temperature;BME280_humidity;BME280_pressure;Samples;Min_cycle;Max_cycle;Signal;HPM_P1;HPM_P2
2022/02/18 00:00:33;;;;;;;3.90;1.20;;;18.50;68.90;;;;;;4976594;28;20196;-83
2022/02/18 00:02:59;;;;;;;1.92;1.00;;;18.50;69.30;;;;;;4976149;28;20161;-83
2022/02/18 00:05:26;;;;;;;3.60;1.30;;;18.50;69.10;;;;;;4976253;28;20255;-83
2022/02/18 00:07:52;;;;;;;2.65;1.40;;;18.50;69.20;;;;;;4959064;28;20179;-83
2022/02/18 00:10:19;;;;;;;3.28;1.42;;;18.40;68.90;;;;;;4960019;28;20538;-83
2022/02/18 00:12:45;;;;;;;2.83;1.10;;;18.50;69.10;;;;;;4993727;28;20164;-83
2022/02/18 00:15:11;;;;;;;4.72;1.08;;;18.50;69.20;;;;;;4960103;28;20196;-83
2022/02/18 00:17:38;;;;;;;4.35;1.27;;;18.50;69.30;;;;;;4976052;28;20192;-83
2022/02/18 00:20:05;;;;;;;1.90;1.20;;;18.40;69.00;;;;;;4963724;28;20218;-83
2022/02/18 00:22:30;;;;;;;5.70;1.00;;;18.50;68.90;;;;;;4963629;28;20635;-83
2022/02/18 00:24:56;;;;;;;2.53;1.33;;;18.50;69.10;;;;;;4979953;28;20207;-83
2022/02/18 00:27:22;;;;;;;4.32;1.35;;;18.50;69.30;;;;;;4976306;28;20220;-83
2022/02/18 00:29:47;;;;;;;1.65;1.10;;;18.40;69.10;;;;;;4960942;28;20235;-83
2022/02/18 00:32:13;;;;;;;4.43;1.33;;;18.50;69.20;;;;;;4963651;28;20176;-84
2022/02/18 00:34:39;;;;;;;2.85;1.25;;;18.50;68.30;;;;;;4979443;28;20164;-83
2022/02/18 00:37:04;;;;;;;3.85;1.38;;;18.50;69.00;;;;;;4963355;28;20203;-83
2022/02/18 00:39:30;;;;;;;3.58;1.17;;;18.50;69.10;;;;;;4963311;28;20247;-83
2022/02/18 00:41:56;;;;;;;2.67;1.20;;;18.50;69.00;;;;;;4963258;28;20598;-83
2022/02/18 00:44:22;;;;;;;2.83;1.00;;;18.50;69.00;;;;;;4963382;28;20172;-83
2022/02/18 00:46:50;;;;;;;2.28;1.00;;;18.40;69.00;;;;;;4979294;28;20160;-83
2022/02/18 00:49:17;;;;;;;3.35;1.17;;;18.30;69.10;;;;;;4979449;28;20560;-83
2022/02/18 00:51:43;;;;;;;2.92;1.40;;;18.40;68.90;;;;;;4963270;28;20172;-83
2022/02/18 00:54:08;;;;;;;3.33;1.40;;;18.40;69.40;;;;;;4979535;28;20198;-83
2022/02/18 00:56:34;;;;;;;1.80;1.20;;;18.30;68.90;;;;;;4978735;28;20188;-83
2022/02/18 00:59:02;;;;;;;2.42;1.17;;;18.40;69.20;;;;;;4962842;28;20171;-83
2022/02/18 01:01:28;;;;;;;1.92;1.10;;;18.40;69.40;;;;;;4979398;28;20154;-83
2022/02/18 01:03:53;;;;;;;1.90;1.30;;;18.30;69.30;;;;;;4979048;28;20508;-83
2022/02/18 01:06:19;;;;;;;5.82;1.30;;;18.30;69.40;;;;;;4962846;28;20727;-83
2022/02/18 01:08:45;;;;;;;4.38;1.73;;;18.30;69.60;;;;;;4962763;28;20172;-83
2022/02/18 01:11:10;;;;;;;4.63;1.20;;;18.40;69.50;;;;;;4978932;28;20159;-83
2022/02/18 01:13:36;;;;;;;1.85;1.10;;;18.30;69.50;;;;;;4978631;28;20164;-83
2022/02/18 01:16:02;;;;;;;3.65;1.40;;;18.20;69.10;;;;;;4962483;28;20323;-83
2022/02/18 01:18:28;;;;;;;1.65;1.15;;;18.30;69.30;;;;;;4978906;28;20187;-83
2022/02/18 01:20:53;;;;;;;2.10;1.00;;;18.30;69.20;;;;;;4962748;28;20176;-83
2022/02/18 01:23:19;;;;;;;3.97;1.15;;;18.30;68.60;;;;;;4978904;28;20200;-84
2022/02/18 01:25:44;;;;;;;2.92;1.17;;;18.30;68.80;;;;;;4962498;28;20192;-83
2022/02/18 01:28:10;;;;;;;2.20;1.13;;;18.30;69.20;;;;;;4962256;28;20302;-83
2022/02/18 01:30:37;;;;;;;2.20;1.13;;;18.30;68.70;;;;;;4961434;28;20206;-83
2022/02/18 01:33:03;;;;;;;4.47;1.30;;;18.30;68.80;;;;;;4978762;28;20682;-83
2022/02/18 01:35:29;;;;;;;2.47;1.10;;;18.30;69.10;;;;;;4962298;28;20271;-83
2022/02/18 01:37:54;;;;;;;2.95;1.23;;;18.30;69.00;;;;;;4962615;28;20230;-83
2022/02/18 01:40:22;;;;;;;3.45;1.20;;;18.30;69.10;;;;;;4962817;28;20164;-83
2022/02/18 01:42:47;;;;;;;1.63;1.13;;;18.30;68.90;;;;;;4962735;28;20604;-84
2022/02/18 01:45:13;;;;;;;4.07;1.05;;;18.30;69.50;;;;;;4962249;28;20176;-83
2022/02/18 01:47:39;;;;;;;4.93;1.20;;;18.30;69.00;;;;;;4962069;28;20219;-83
2022/02/18 01:50:05;;;;;;;2.42;1.20;;;18.30;68.70;;;;;;4978766;28;20163;-83
2022/02/18 01:52:35;;;;;;;2.75;1.23;;;18.30;69.20;;;;;;4978222;28;20160;-83
2022/02/18 01:55:07;;;;;;;3.72;1.13;;;18.20;68.80;;;;;;4978031;28;20247;-83
2022/02/18 01:57:32;;;;;;;3.47;1.17;;;18.20;69.00;;;;;;4962540;28;20250;-83
2022/02/18 01:59:58;;;;;;;3.35;1.10;;;18.20;69.10;;;;;;4977907;28;20155;-83
2022/02/18 02:02:23;;;;;;;3.88;1.33;;;18.10;68.90;;;;;;4978010;28;20161;-83
2022/02/18 02:04:50;;;;;;;3.13;1.00;;;18.20;69.10;;;;;;4977876;28;20163;-83
2022/02/18 02:07:15;;;;;;;1.85;1.10;;;18.20;69.10;;;;;;4961840;28;20182;-83
2022/02/18 02:09:41;;;;;;;2.28;1.10;;;18.20;69.10;;;;;;4962232;28;20167;-83
2022/02/18 02:12:07;;;;;;;2.10;1.10;;;18.30;69.10;;;;;;4977698;28;20204;-83
2022/02/18 02:14:32;;;;;;;2.30;1.00;;;18.20;68.90;;;;;;4962566;28;20218;-83
2022/02/18 02:16:58;;;;;;;2.00;1.40;;;18.20;68.70;;;;;;4977898;28;20613;-83
2022/02/18 02:19:24;;;;;;;3.03;1.42;;;18.20;68.90;;;;;;4961460;28;20171;-83
2022/02/18 02:21:51;;;;;;;3.83;1.15;;;18.20;68.90;;;;;;4961144;28;20166;-83
2022/02/18 02:24:17;;;;;;;2.88;1.25;;;18.20;68.60;;;;;;4961563;28;20641;-83
2022/02/18 02:26:43;;;;;;;1.83;1.17;;;18.20;68.90;;;;;;4977542;28;20168;-83
2022/02/18 02:29:12;;;;;;;3.67;1.15;;;18.20;69.00;;;;;;4961122;28;20709;-83
2022/02/18 02:31:38;;;;;;;3.15;1.20;;;18.20;69.10;;;;;;4977442;28;20634;-83
2022/02/18 02:34:04;;;;;;;2.55;1.15;;;18.20;68.90;;;;;;4961148;28;20176;-83
2022/02/18 02:36:32;;;;;;;1.65;0.95;;;18.10;68.60;;;;;;4961243;28;20366;-83
2022/02/18 02:38:59;;;;;;;1.73;1.00;;;18.20;69.20;;;;;;4976637;28;20246;-83
2022/02/18 02:41:26;;;;;;;1.63;1.00;;;18.20;69.10;;;;;;4976214;28;20669;-83
2022/02/18 02:43:53;;;;;;;2.53;1.35;;;18.20;69.10;;;;;;4960112;28;20188;-83
2022/02/18 02:46:18;;;;;;;1.67;1.05;;;18.10;69.00;;;;;;4959861;28;20215;-83
2022/02/18 02:48:44;;;;;;;1.95;1.10;;;18.20;69.10;;;;;;4994300;28;20161;-83
2022/02/18 02:51:10;;;;;;;3.83;1.02;;;18.10;68.70;;;;;;4976997;28;20577;-83
2022/02/18 02:53:39;;;;;;;2.35;1.20;;;18.20;68.70;;;;;;4960831;28;20697;-83
2022/02/18 02:56:05;;;;;;;2.58;1.20;;;18.20;68.60;;;;;;4960959;28;20622;-83
2022/02/18 02:58:31;;;;;;;3.88;1.10;;;18.20;68.60;;;;;;4976583;28;20575;-83
2022/02/18 03:00:57;;;;;;;2.17;1.10;;;18.20;68.90;;;;;;4977013;28;20159;-83
2022/02/18 03:03:24;;;;;;;2.15;1.10;;;18.10;68.90;;;;;;4976865;28;20691;-83
2022/02/18 03:05:51;;;;;;;1.80;1.00;;;18.20;68.70;;;;;;4959704;28;20204;-84
2022/02/18 03:08:18;;;;;;;1.63;1.13;;;18.20;68.70;;;;;;4959889;28;20231;-83
2022/02/18 03:11:14;;;;;;;3.95;1.20;;;18.10;68.70;;;;;;4975804;28;20184;-83
2022/02/18 03:13:32;;;;;;;2.70;1.25;;;18.20;68.90;;;;;;4978959;28;20186;-83
2022/02/18 03:15:57;;;;;;;3.10;1.30;;;18.10;68.90;;;;;;4975815;28;20176;-83
2022/02/18 03:18:23;;;;;;;2.92;1.33;;;18.20;68.90;;;;;;4976587;28;20221;-83
2022/02/18 03:20:49;;;;;;;2.72;1.10;;;18.10;68.60;;;;;;4960463;28;20172;-83
2022/02/18 03:23:15;;;;;;;1.67;1.10;;;18.20;68.60;;;;;;4976680;28;20242;-84
2022/02/18 03:25:41;;;;;;;4.40;1.20;;;18.10;68.60;;;;;;4993922;28;20307;-83
2022/02/18 03:28:06;;;;;;;3.10;1.30;;;18.10;68.70;;;;;;4960076;28;20769;-83
2022/02/18 03:30:33;;;;;;;2.08;1.08;;;18.10;68.70;;;;;;4960752;28;20180;-83
2022/02/18 03:32:59;;;;;;;1.67;0.75;;;18.10;68.60;;;;;;4960816;28;20176;-83
2022/02/18 03:35:25;;;;;;;2.22;0.80;;;18.10;68.70;;;;;;4993768;28;20218;-83
2022/02/18 03:37:51;;;;;;;2.13;1.30;;;18.10;68.90;;;;;;4976391;28;20216;-83
2022/02/18 03:40:17;;;;;;;2.92;1.30;;;18.10;68.50;;;;;;4976413;28;20191;-83
2022/02/18 03:42:42;;;;;;;1.70;0.98;;;18.10;68.40;;;;;;4976659;28;20153;-83
2022/02/18 03:45:09;;;;;;;1.65;0.93;;;18.10;68.30;;;;;;4960254;28;20235;-83
2022/02/18 03:47:37;;;;;;;3.35;1.00;;;18.20;68.40;;;;;;4960464;28;20186;-83
2022/02/18 03:50:02;;;;;;;2.72;1.13;;;18.10;68.70;;;;;;4975805;28;20308;-83
2022/02/18 03:52:28;;;;;;;3.20;1.17;;;18.10;67.80;;;;;;4976354;28;20179;-83
2022/02/18 03:54:53;;;;;;;2.75;1.20;;;18.10;68.00;;;;;;4980278;28;20218;-83
2022/02/18 03:57:19;;;;;;;1.67;1.10;;;18.20;67.80;;;;;;4964239;28;20195;-83
2022/02/18 03:59:45;;;;;;;1.83;1.23;;;18.10;68.30;;;;;;4980199;28;20682;-84
2022/02/18 04:02:10;;;;;;;3.33;1.20;;;18.10;68.10;;;;;;4980299;28;20172;-83
2022/02/18 04:04:36;;;;;;;1.55;1.00;;;18.10;68.10;;;;;;4963838;28;20251;-83
2022/02/18 04:07:02;;;;;;;2.72;1.23;;;18.10;68.50;;;;;;4963858;28;20275;-83
2022/02/18 04:09:27;;;;;;;3.13;1.50;;;18.10;67.90;;;;;;4979991;28;20187;-83
2022/02/18 04:11:53;;;;;;;3.20;1.10;;;18.10;68.10;;;;;;4980256;28;20493;-83
2022/02/18 04:14:18;;;;;;;4.18;1.42;;;18.00;67.60;;;;;;4963544;28;20168;-84
2022/02/18 04:16:44;;;;;;;3.70;1.20;;;18.10;67.80;;;;;;4964511;28;20199;-83
2022/02/18 04:19:10;;;;;;;1.80;0.90;;;18.10;67.20;;;;;;4979810;28;20171;-83
2022/02/18 04:21:35;;;;;;;1.73;1.00;;;18.10;67.40;;;;;;4979747;28;20165;-83
2022/02/18 04:24:02;;;;;;;3.40;1.02;;;18.10;67.70;;;;;;4963572;28;20183;-83
2022/02/18 04:26:28;;;;;;;2.45;0.98;;;18.10;67.20;;;;;;4978885;28;20199;-83
2022/02/18 04:28:56;;;;;;;3.03;1.02;;;18.10;68.10;;;;;;4979959;28;20216;-83
2022/02/18 04:31:22;;;;;;;1.92;0.80;;;18.10;67.40;;;;;;4979115;28;20271;-83
2022/02/18 04:33:48;;;;;;;3.80;1.25;;;18.10;67.80;;;;;;4978944;28;20188;-84
2022/02/18 04:36:14;;;;;;;1.63;1.10;;;18.10;67.50;;;;;;4979659;28;20199;-83
2022/02/18 04:38:39;;;;;;;2.00;1.00;;;18.10;67.40;;;;;;4963235;28;20199;-83
2022/02/18 04:41:06;;;;;;;2.00;0.98;;;18.10;67.70;;;;;;4979582;28;20159;-83
2022/02/18 04:43:32;;;;;;;1.60;1.05;;;18.10;67.30;;;;;;4979481;28;20173;-83
2022/02/18 04:45:58;;;;;;;2.08;0.93;;;18.10;67.80;;;;;;4979320;28;20161;-83
2022/02/18 04:48:23;;;;;;;2.03;1.20;;;18.10;67.90;;;;;;4996868;28;20175;-83
2022/02/18 04:50:49;;;;;;;1.55;1.17;;;18.10;68.10;;;;;;4963047;28;20231;-83
2022/02/18 04:53:14;;;;;;;1.20;0.90;;;18.10;67.60;;;;;;4979405;28;20608;-83
2022/02/18 04:55:40;;;;;;;2.60;1.00;;;18.10;68.10;;;;;;4962955;28;20180;-83
2022/02/18 04:58:06;;;;;;;1.52;0.95;;;18.10;67.10;;;;;;4978980;28;20198;-83
2022/02/18 05:00:32;;;;;;;2.47;1.17;;;18.10;67.30;;;;;;4979130;28;20163;-84
2022/02/18 05:02:59;;;;;;;2.15;1.23;;;18.10;67.80;;;;;;4978351;28;20183;-83
2022/02/18 05:05:26;;;;;;;2.05;1.10;;;18.20;67.60;;;;;;4960958;28;20188;-83
2022/02/18 05:07:51;;;;;;;2.28;0.95;;;18.10;67.60;;;;;;4979155;28;20244;-83
2022/02/18 05:10:18;;;;;;;2.05;1.10;;;18.10;67.70;;;;;;4978989;28;20172;-84
2022/02/18 05:12:43;;;;;;;2.58;1.25;;;18.10;67.20;;;;;;4978816;28;20673;-84
2022/02/18 05:15:10;;;;;;;2.42;0.90;;;18.10;67.60;;;;;;4979066;28;20172;-83
2022/02/18 05:17:36;;;;;;;1.75;0.88;;;18.10;67.10;;;;;;4961777;28;20207;-83
2022/02/18 05:20:02;;;;;;;3.65;1.13;;;18.10;67.70;;;;;;4978765;28;20634;-83
2022/02/18 05:22:27;;;;;;;1.45;0.80;;;18.10;68.00;;;;;;4962644;28;20262;-83
2022/02/18 05:24:53;;;;;;;2.97;1.00;;;18.10;67.40;;;;;;4978951;28;20160;-83
2022/02/18 05:27:18;;;;;;;2.15;0.98;;;18.10;65.50;;;;;;4962200;28;20228;-83
2022/02/18 05:29:44;;;;;;;1.30;0.98;;;18.10;67.00;;;;;;4962582;28;20200;-83
2022/02/18 05:32:11;;;;;;;1.67;0.90;;;18.20;65.80;;;;;;4978586;28;20638;-83
2022/02/18 05:34:37;;;;;;;3.38;1.10;;;18.10;65.30;;;;;;4978373;28;20198;-83
2022/02/18 05:37:09;;;;;;;1.83;0.98;;;18.20;66.40;;;;;;4978282;28;20193;-83
2022/02/18 05:39:35;;;;;;;1.75;1.05;;;18.20;66.00;;;;;;4962008;28;20180;-83
2022/02/18 05:42:01;;;;;;;1.75;0.90;;;18.20;66.10;;;;;;4978349;28;20160;-83
2022/02/18 05:44:31;;;;;;;1.75;1.13;;;18.30;65.70;;;;;;4962077;28;20182;-83
2022/02/18 05:46:57;;;;;;;1.67;0.90;;;18.30;65.70;;;;;;4962820;28;20196;-83
2022/02/18 05:49:23;;;;;;;1.58;0.85;;;18.30;65.20;;;;;;4978286;28;20173;-83
2022/02/18 05:51:49;;;;;;;1.15;0.88;;;18.30;65.80;;;;;;4978252;28;20579;-84
2022/02/18 05:54:14;;;;;;;2.03;0.88;;;18.30;65.40;;;;;;4961962;28;20180;-83
2022/02/18 05:56:40;;;;;;;1.60;0.90;;;18.20;66.10;;;;;;4962105;28;20200;-83
2022/02/18 05:59:06;;;;;;;1.50;0.80;;;18.30;65.50;;;;;;4978261;28;20164;-83
2022/02/18 06:01:31;;;;;;;1.40;0.60;;;18.30;65.00;;;;;;4961835;28;20202;-83
2022/02/18 06:03:58;;;;;;;1.33;1.05;;;18.30;64.20;;;;;;4961578;28;20175;-83
2022/02/18 06:06:26;;;;;;;2.22;0.90;;;18.30;65.00;;;;;;4977345;28;20199;-83
2022/02/18 06:08:52;;;;;;;2.10;0.90;;;18.40;64.60;;;;;;4961931;28;20179;-83
2022/02/18 06:11:18;;;;;;;1.80;1.08;;;18.40;64.20;;;;;;4977785;28;20157;-83
2022/02/18 06:13:43;;;;;;;1.55;1.02;;;18.40;64.20;;;;;;4961996;28;20263;-83
2022/02/18 06:16:09;;;;;;;2.15;1.10;;;18.40;64.60;;;;;;4977265;28;20184;-83
2022/02/18 06:18:34;;;;;;;1.85;0.90;;;18.40;64.40;;;;;;4977782;28;20178;-83
2022/02/18 06:21:00;;;;;;;1.20;1.08;;;18.40;64.90;;;;;;4994860;28;20259;-83
2022/02/18 06:23:26;;;;;;;1.20;0.88;;;18.30;64.50;;;;;;4977775;28;20164;-83
2022/02/18 06:25:51;;;;;;;1.48;0.80;;;18.40;64.10;;;;;;4995219;28;20239;-83
2022/02/18 06:28:18;;;;;;;2.03;0.93;;;18.40;64.30;;;;;;4994807;28;20226;-83
2022/02/18 06:30:44;;;;;;;1.45;0.90;;;18.40;64.30;;;;;;4961592;28;20164;-83
2022/02/18 06:33:10;;;;;;;1.98;1.08;;;18.50;64.60;;;;;;4961076;28;20176;-83
2022/02/18 06:35:39;;;;;;;1.13;0.88;;;18.50;64.40;;;;;;4977361;28;20171;-83
2022/02/18 06:38:06;;;;;;;1.10;0.80;;;18.40;64.30;;;;;;4977832;28;20192;-83
2022/02/18 06:40:33;;;;;;;1.10;0.70;;;18.40;64.10;;;;;;4961156;28;20524;-83
2022/02/18 06:43:00;;;;;;;1.20;0.80;;;18.40;64.40;;;;;;4960347;28;20206;-83
2022/02/18 06:45:26;;;;;;;2.00;1.23;;;18.40;63.20;;;;;;4977159;28;20242;-83
2022/02/18 06:47:52;;;;;;;1.25;0.85;;;18.50;64.20;;;;;;4994540;28;20164;-83
2022/02/18 06:50:20;;;;;;;0.80;0.70;;;18.40;63.80;;;;;;4960644;28;20651;-83
2022/02/18 06:52:49;;;;;;;1.30;1.13;;;18.50;64.50;;;;;;4976534;28;20192;-83
2022/02/18 06:55:16;;;;;;;2.47;0.80;;;18.40;63.40;;;;;;4960156;28;20200;-83
2022/02/18 06:57:43;;;;;;;1.70;1.00;;;18.40;64.00;;;;;;4976072;28;20215;-82
2022/02/18 07:00:10;;;;;;;2.13;0.90;;;18.40;63.60;;;;;;4976903;28;20152;-82
2022/02/18 07:02:36;;;;;;;1.63;0.85;;;18.40;61.70;;;;;;4976821;28;20171;-82
2022/02/18 07:05:01;;;;;;;1.08;0.70;;;18.50;61.80;;;;;;4977057;28;20164;-83
2022/02/18 07:07:28;;;;;;;1.55;0.75;;;18.50;61.80;;;;;;4960353;28;20168;-82
2022/02/18 07:09:54;;;;;;;1.23;0.70;;;18.50;63.10;;;;;;4944394;28;20180;-83
2022/02/18 07:12:25;;;;;;;2.15;1.10;;;18.50;61.60;;;;;;4961790;28;20694;-82
2022/02/18 07:14:54;;;;;;;1.95;0.98;;;18.60;61.80;;;;;;4945534;28;20263;-82
2022/02/18 07:17:22;;;;;;;1.60;1.10;;;18.50;62.50;;;;;;4976639;28;20223;-83
2022/02/18 07:19:52;;;;;;;4.53;1.20;;;18.60;62.00;;;;;;4960671;28;20186;-81
2022/02/18 07:22:19;;;;;;;3.63;1.10;;;18.60;62.60;;;;;;4944599;28;20204;-82
2022/02/18 07:24:45;;;;;;;2.63;1.13;;;18.60;61.30;;;;;;4959993;28;20183;-82
2022/02/18 07:27:11;;;;;;;2.30;1.02;;;18.60;61.20;;;;;;4961781;28;20222;-82
2022/02/18 07:29:38;;;;;;;5.13;1.63;;;18.60;60.80;;;;;;4961112;28;20175;-82
2022/02/18 07:32:06;;;;;;;4.28;1.42;;;18.60;63.00;;;;;;4976388;28;20183;-83
2022/02/18 07:34:33;;;;;;;2.22;1.08;;;18.60;64.60;;;;;;4959758;28;20191;-82
2022/02/18 07:37:00;;;;;;;2.05;1.00;;;18.50;62.20;;;;;;4961252;28;20215;-82
2022/02/18 07:39:27;;;;;;;1.67;0.95;;;18.50;63.80;;;;;;4959733;28;20187;-82
2022/02/18 07:41:54;;;;;;;0.88;0.80;;;18.50;62.70;;;;;;4975821;28;20195;-82
2022/02/18 07:44:21;;;;;;;3.00;0.90;;;18.60;61.90;;;;;;4959692;28;20180;-82
2022/02/18 07:46:49;;;;;;;1.30;0.90;;;18.60;61.60;;;;;;4976197;28;20211;-82
2022/02/18 07:49:17;;;;;;;1.35;0.85;;;18.60;61.20;;;;;;4975698;28;20558;-82
2022/02/18 07:51:44;;;;;;;2.83;1.20;;;18.70;62.00;;;;;;4975630;28;20184;-82
2022/02/18 07:54:12;;;;;;;3.17;1.17;;;18.60;61.90;;;;;;4975708;28;20538;-82
2022/02/18 07:56:39;;;;;;;1.67;0.90;;;18.60;61.00;;;;;;4975680;28;20219;-82
2022/02/18 07:59:06;;;;;;;2.42;0.95;;;18.60;60.40;;;;;;4975715;28;20290;-82
2022/02/18 08:01:34;;;;;;;1.60;0.98;;;18.70;59.90;;;;;;4975682;28;20247;-82
2022/02/18 08:04:01;;;;;;;1.73;1.05;;;18.70;61.00;;;;;;4975580;28;20194;-82
2022/02/18 08:06:28;;;;;;;2.65;0.85;;;18.70;62.00;;;;;;4959660;28;20183;-82
2022/02/18 08:08:55;;;;;;;3.55;1.30;;;18.70;59.70;;;;;;4975233;28;20250;-82
2022/02/18 08:11:23;;;;;;;3.92;1.10;;;18.70;61.60;;;;;;4975709;28;20678;-82
2022/02/18 08:13:50;;;;;;;2.90;1.30;;;18.70;61.00;;;;;;4975984;28;20242;-82
2022/02/18 08:16:17;;;;;;;2.10;1.10;;;18.70;60.70;;;;;;4975637;28;20628;-82
2022/02/18 08:18:44;;;;;;;2.38;1.25;;;18.80;61.10;;;;;;4975761;28;20176;-82
2022/02/18 08:21:11;;;;;;;1.70;1.23;;;18.70;61.80;;;;;;4927904;28;20202;-81
2022/02/18 08:23:39;;;;;;;2.60;0.98;;;18.70;62.60;;;;;;4960556;28;20608;-82
2022/02/18 08:26:07;;;;;;;2.22;0.90;;;18.60;60.30;;;;;;4976230;28;20266;-82
2022/02/18 08:28:34;;;;;;;1.83;0.80;;;18.60;61.40;;;;;;4974963;28;20287;-82
2022/02/18 08:31:02;;;;;;;2.00;0.98;;;18.70;60.80;;;;;;4975613;28;20639;-82
2022/02/18 08:33:30;;;;;;;2.15;1.17;;;18.70;61.00;;;;;;4959462;28;20191;-82
2022/02/18 08:35:57;;;;;;;3.58;1.10;;;18.70;60.30;;;;;;4975207;28;20184;-82
2022/02/18 08:38:24;;;;;;;1.60;0.90;;;18.70;61.10;;;;;;4975345;28;20192;-81
2022/02/18 08:40:52;;;;;;;2.65;1.40;;;18.70;61.70;;;;;;4978646;28;20184;-82
2022/02/18 08:43:17;;;;;;;2.90;0.98;;;18.80;61.20;;;;;;4962551;28;20259;-82
2022/02/18 08:45:43;;;;;;;0.98;0.90;;;18.70;59.80;;;;;;4979792;28;20690;-82
2022/02/18 08:58:14;;;;;;;4.20;0.98;;;18.80;60.00;;;;;;4996449;28;20223;-82
2022/02/18 09:01:32;;;;;;;1.67;1.35;;;18.80;59.90;;;;;;4962813;28;20168;-82
2022/02/18 09:03:59;;;;;;;1.67;1.08;;;18.80;60.00;;;;;;4994789;28;20207;-82
2022/02/18 09:06:24;;;;;;;2.55;1.20;;;18.80;60.30;;;;;;4978895;28;20357;-81
2022/02/18 09:08:50;;;;;;;1.27;1.05;;;18.70;60.50;;;;;;4979849;28;20160;-81
2022/02/18 09:11:18;;;;;;;1.95;1.00;;;18.70;60.40;;;;;;4979009;28;20164;-81
2022/02/18 09:13:44;;;;;;;1.25;1.15;;;18.80;60.00;;;;;;4978972;28;20160;-81
2022/02/18 09:16:10;;;;;;;1.88;1.50;;;18.80;59.90;;;;;;4979232;28;20156;-81
2022/02/18 09:18:36;;;;;;;4.85;1.20;;;18.80;58.80;;;;;;4962673;28;20164;-80
2022/02/18 09:21:03;;;;;;;2.22;0.90;;;18.80;60.10;;;;;;4979146;28;20152;-80
2022/02/18 09:23:30;;;;;;;1.23;1.00;;;18.80;60.00;;;;;;4978135;28;20283;-81
2022/02/18 09:25:57;;;;;;;1.60;0.90;;;18.80;58.50;;;;;;4962114;28;20218;-81
2022/02/18 09:28:23;;;;;;;1.27;0.90;;;18.80;59.60;;;;;;4961653;28;20231;-81
2022/02/18 09:30:51;;;;;;;1.42;0.77;;;18.90;59.30;;;;;;4962136;28;20171;-80
2022/02/18 09:33:17;;;;;;;2.88;1.10;;;18.90;58.70;;;;;;4978436;28;20149;-81
2022/02/18 09:35:43;;;;;;;2.40;1.15;;;18.80;59.80;;;;;;4980038;28;20160;-82
2022/02/18 09:38:09;;;;;;;1.20;0.90;;;18.80;58.50;;;;;;4979507;28;20191;-81
2022/02/18 09:40:35;;;;;;;1.60;0.98;;;18.90;58.90;;;;;;4979100;28;20223;-81
2022/02/18 09:43:02;;;;;;;1.80;1.20;;;18.90;59.80;;;;;;4963166;28;20164;-81
2022/02/18 09:45:29;;;;;;;1.17;0.90;;;18.90;59.60;;;;;;4988156;28;20172;-81
2022/02/18 09:47:58;;;;;;;2.75;1.30;;;18.80;58.80;;;;;;4994207;28;20175;-81
2022/02/18 09:50:24;;;;;;;2.50;1.10;;;18.80;59.50;;;;;;4994021;28;20164;-80
2022/02/18 09:52:50;;;;;;;2.80;1.10;;;18.90;60.20;;;;;;4981455;28;20171;-80
2022/02/18 09:55:16;;;;;;;1.33;0.93;;;18.80;60.10;;;;;;4996120;28;20152;-81
2022/02/18 09:57:43;;;;;;;1.85;1.10;;;18.80;59.90;;;;;;4995618;28;20274;-80
2022/02/18 10:00:10;;;;;;;1.70;1.10;;;18.80;59.80;;;;;;4979108;28;20160;-80
2022/02/18 10:02:36;;;;;;;1.83;1.10;;;18.80;60.10;;;;;;4981921;28;20254;-80
2022/02/18 10:05:05;;;;;;;2.28;0.82;;;18.80;60.40;;;;;;4980261;28;20159;-80
2022/02/18 10:07:34;;;;;;;1.10;0.90;;;18.80;59.80;;;;;;4980897;28;20246;-80
2022/02/18 10:09:59;;;;;;;2.33;1.17;;;18.80;60.00;;;;;;4980816;28;20198;-80
2022/02/18 10:12:38;;;;;;;2.13;0.98;;;18.80;59.30;;;;;;4998672;28;20167;-80
2022/02/18 10:15:09;;;;;;;1.88;1.10;;;18.80;60.40;;;;;;4981874;28;20682;-80
2022/02/18 10:17:39;;;;;;;1.48;1.15;;;18.80;59.70;;;;;;4966992;28;20219;-80
2022/02/18 10:20:20;;;;;;;1.50;1.10;;;18.90;60.60;;;;;;4965897;28;20188;-81
2022/02/18 10:23:01;;;;;;;1.85;1.00;;;18.80;60.40;;;;;;4967512;28;20187;-81
2022/02/18 10:25:30;;;;;;;1.25;0.98;;;18.80;59.60;;;;;;4986112;28;20163;-81
2022/02/18 10:27:56;;;;;;;1.92;1.20;;;18.80;60.10;;;;;;4981658;28;20238;-82
2022/02/18 10:30:22;;;;;;;1.48;1.05;;;18.80;59.40;;;;;;4981118;28;20183;-81
2022/02/18 10:32:52;;;;;;;1.60;1.00;;;18.80;59.70;;;;;;4981807;28;20642;-81
2022/02/18 10:35:22;;;;;;;1.10;0.90;;;18.90;59.60;;;;;;4965291;28;20187;-81
2022/02/18 10:37:51;;;;;;;1.58;1.00;;;18.90;59.50;;;;;;4965713;28;20225;-81
2022/02/18 10:40:18;;;;;;;1.75;1.00;;;18.90;59.60;;;;;;4965357;28;20210;-80
2022/02/18 10:42:46;;;;;;;1.90;1.08;;;18.90;58.90;;;;;;4964785;28;20187;-81
2022/02/18 10:45:27;;;;;;;1.73;1.10;;;18.90;59.30;;;;;;4980647;28;20586;-80
2022/02/18 10:48:12;;;;;;;1.77;1.00;;;18.80;59.30;;;;;;5014565;28;20524;-81
2022/02/18 10:50:39;;;;;;;1.17;0.80;;;18.90;59.20;;;;;;5014294;28;20198;-81
2022/02/18 10:53:20;;;;;;;1.35;0.90;;;19.00;58.30;;;;;;4980756;28;20183;-81
2022/02/18 10:55:51;;;;;;;1.52;1.10;;;19.00;58.70;;;;;;4997572;28;20221;-81
2022/02/18 10:58:19;;;;;;;1.40;1.13;;;19.00;58.60;;;;;;4966433;28;20222;-81
2022/02/18 11:00:46;;;;;;;1.80;1.10;;;19.00;58.70;;;;;;4984866;28;20527;-82
2022/02/18 11:03:24;;;;;;;2.20;1.00;;;19.00;58.50;;;;;;4997966;28;20255;-81
2022/02/18 11:05:50;;;;;;;1.15;0.90;;;19.00;57.40;;;;;;4984436;28;20715;-81
2022/02/18 11:08:28;;;;;;;2.25;1.10;;;19.20;56.70;;;;;;4983982;28;20258;-82
2022/02/18 11:10:58;;;;;;;2.15;0.93;;;19.20;57.20;;;;;;5017203;28;20151;-83
2022/02/18 11:13:26;;;;;;;1.15;0.95;;;19.20;57.40;;;;;;5018182;28;20152;-82
2022/02/18 11:16:04;;;;;;;1.65;1.00;;;19.20;56.00;;;;;;4984156;28;20162;-82
2022/02/18 11:18:29;;;;;;;1.55;0.85;;;19.30;56.90;;;;;;4998116;28;20253;-81
2022/02/18 11:20:59;;;;;;;1.92;1.00;;;19.20;57.30;;;;;;5016809;28;20611;-83
2022/02/18 11:23:25;;;;;;;1.85;0.90;;;19.20;56.60;;;;;;4999978;28;20170;-82
2022/02/18 11:25:59;;;;;;;2.38;1.00;;;19.20;56.80;;;;;;5000485;28;20156;-81
2022/02/18 11:28:33;;;;;;;1.83;1.00;;;19.20;57.60;;;;;;4980377;28;20617;-83
2022/02/18 11:31:11;;;;;;;1.45;0.88;;;19.20;56.90;;;;;;4949880;28;20197;-81
2022/02/18 11:34:11;;;;;;;2.40;1.10;;;19.20;56.80;;;;;;4969343;28;20191;-82
2022/02/18 11:36:55;;;;;;;2.45;1.38;;;19.20;57.10;;;;;;4986305;28;20187;-81
2022/02/18 11:40:01;;;;;;;2.13;1.15;;;19.20;56.70;;;;;;4995574;28;20179;-81
2022/02/18 11:42:41;;;;;;;3.00;1.10;;;19.30;56.80;;;;;;4948325;28;20194;-82
2022/02/18 11:45:25;;;;;;;2.10;1.08;;;19.30;57.00;;;;;;4995933;28;20159;-81
2022/02/18 11:48:00;;;;;;;1.20;0.90;;;19.20;56.60;;;;;;4979027;28;20199;-81
2022/02/18 11:50:29;;;;;;;1.25;0.95;;;19.30;56.80;;;;;;4978188;28;20588;-82
2022/02/18 11:52:55;;;;;;;2.90;1.08;;;19.30;56.70;;;;;;4976333;28;20663;-81
2022/02/18 11:55:40;;;;;;;2.22;1.42;;;19.30;56.20;;;;;;4993517;28;20161;-81
2022/02/18 11:58:11;;;;;;;1.30;1.10;;;19.30;56.30;;;;;;4993174;28;20188;-82
2022/02/18 12:00:45;;;;;;;1.75;0.90;;;19.30;56.00;;;;;;4971894;28;20714;-81
2022/02/18 12:03:17;;;;;;;1.10;0.80;;;19.40;55.80;;;;;;4923769;28;20714;-81
2022/02/18 12:06:17;;;;;;;1.50;0.98;;;19.40;55.70;;;;;;4940642;28;20259;-81
2022/02/18 12:08:46;;;;;;;1.27;0.95;;;19.40;55.40;;;;;;4923074;28;20180;-81
2022/02/18 12:11:15;;;;;;;1.15;0.90;;;19.40;55.50;;;;;;4971855;28;20564;-81
2022/02/18 12:13:56;;;;;;;1.38;0.93;;;19.40;55.20;;;;;;4921768;28;20189;-82
2022/02/18 12:16:25;;;;;;;1.63;1.00;;;19.40;54.80;;;;;;4910791;29;20220;-81
2022/02/18 12:19:13;;;;;;;1.40;1.00;;;19.40;55.50;;;;;;4924639;29;20213;-82
2022/02/18 12:22:05;;;;;;;1.98;0.90;;;19.30;55.50;;;;;;4956443;29;20185;-82
2022/02/18 12:24:43;;;;;;;1.10;0.90;;;19.40;55.10;;;;;;4956405;29;20332;-82
2022/02/18 12:27:31;;;;;;;2.75;1.40;;;19.40;56.00;;;;;;4939898;29;20185;-82
2022/02/18 12:30:02;;;;;;;1.17;1.00;;;19.30;55.50;;;;;;4956544;29;20170;-82
2022/02/18 12:32:28;;;;;;;1.02;0.85;;;19.30;56.00;;;;;;4990850;28;20216;-82
2022/02/18 12:35:06;;;;;;;1.73;1.25;;;19.30;55.80;;;;;;4979860;28;20234;-82
2022/02/18 12:37:33;;;;;;;0.82;0.77;;;19.30;55.40;;;;;;4979697;28;20227;-82
2022/02/18 12:40:00;;;;;;;3.22;0.98;;;19.30;55.00;;;;;;4979561;28;20683;-82
2022/02/18 12:42:27;;;;;;;1.65;1.17;;;19.40;55.40;;;;;;4964479;28;20259;-82
2022/02/18 12:44:57;;;;;;;2.53;1.10;;;19.30;55.10;;;;;;4979253;28;20168;-82
2022/02/18 12:47:28;;;;;;;1.90;1.00;;;19.30;55.50;;;;;;4929930;28;20184;-82
2022/02/18 12:49:59;;;;;;;1.08;0.90;;;19.30;55.60;;;;;;4930980;28;20192;-82
2022/02/18 12:52:28;;;;;;;1.02;0.80;;;19.20;55.60;;;;;;4947239;28;20200;-81
2022/02/18 12:54:58;;;;;;;1.63;1.08;;;19.20;55.30;;;;;;4930334;28;20195;-81
2022/02/18 12:57:27;;;;;;;1.27;0.82;;;19.30;55.40;;;;;;4947934;28;20607;-81
2022/02/18 12:59:55;;;;;;;1.23;1.00;;;19.30;55.30;;;;;;4981478;28;20222;-80
2022/02/18 13:02:42;;;;;;;1.13;0.70;;;19.20;55.70;;;;;;4965099;28;20649;-81